createdAt,value
2023-04-15T00:01:19.477Z,100706.88
2023-04-15T00:03:47.933Z,100696.50
2023-04-15T00:06:15.753Z,100699.16
2023-04-15T00:08:43.619Z,100707.09
2023-04-15T00:11:11.645Z,100702.78
2023-04-15T00:13:39.597Z,100703.72
2023-04-15T00:16:08.621Z,100704.63
2023-04-15T00:18:38.206Z,100708.13
2023-04-15T00:21:05.939Z,100696.84
2023-04-15T00:23:33.466Z,100708.13
2023-04-15T00:26:01.017Z,100709.00
2023-04-15T00:28:28.649Z,100704.63
2023-04-15T00:30:56.480Z,100703.75
2023-04-15T00:33:24.214Z,100702.91
2023-04-15T00:35:51.845Z,100699.50
2023-04-15T00:38:19.561Z,100700.41
2023-04-15T00:40:47.445Z,100703.94
2023-04-15T00:43:15.002Z,100703.13
2023-04-15T00:45:43.461Z,100702.28
2023-04-15T00:48:12.333Z,100699.69
2023-04-15T00:50:39.889Z,100701.44
2023-04-15T00:53:07.411Z,100708.47
2023-04-15T00:55:36.256Z,100707.59
2023-04-15T00:58:03.921Z,100699.78
2023-04-15T01:00:31.638Z,100701.56
2023-04-15T01:02:59.675Z,100701.56
2023-04-15T01:05:28.687Z,100704.22
2023-04-15T01:07:58.143Z,100703.41
2023-04-15T01:10:25.749Z,100704.34
2023-04-15T01:12:53.415Z,100706.13
2023-04-15T01:15:21.309Z,100708.78
2023-04-15T01:17:49.340Z,100712.31
2023-04-15T01:20:17.255Z,100716.78
2023-04-15T01:22:45.358Z,100711.63
2023-04-15T01:25:19.538Z,100710.78
2023-04-15T01:27:47.630Z,100710.88
2023-04-15T01:30:15.705Z,100712.66
2023-04-15T01:32:43.292Z,100712.72
2023-04-15T01:35:10.867Z,100711.00
2023-04-15T01:37:38.455Z,100709.31
2023-04-15T01:40:07.974Z,100712.84
2023-04-15T01:42:37.714Z,100713.75
2023-04-15T01:45:07.177Z,100720.75
2023-04-15T01:47:34.785Z,100719.06
2023-04-15T01:50:02.938Z,100710.41
2023-04-15T01:52:30.592Z,100712.16
2023-04-15T01:54:58.344Z,100712.25
2023-04-15T01:57:28.396Z,100715.75
2023-04-15T01:59:56.088Z,100716.69
2023-04-15T02:02:23.763Z,100711.47
2023-04-15T02:04:51.410Z,100712.31
2023-04-15T02:07:19.641Z,100710.63
2023-04-15T02:09:47.693Z,100708.94
2023-04-15T02:12:15.277Z,100708.06
2023-04-15T02:14:42.869Z,100715.91
2023-04-15T02:17:10.643Z,100709.84
2023-04-15T02:19:39.314Z,100710.69
2023-04-15T02:22:09.277Z,100715.06
2023-04-15T02:24:36.869Z,100715.09
2023-04-15T02:27:04.484Z,100715.06
2023-04-15T02:29:32.894Z,100716.78
2023-04-15T02:32:01.813Z,100722.91
2023-04-15T02:34:29.525Z,100717.66
2023-04-15T02:36:58.960Z,100722.91
2023-04-15T02:39:27.345Z,100729.84
2023-04-15T02:41:55.321Z,100734.19
2023-04-15T02:44:24.930Z,100729.84
2023-04-15T02:46:56.851Z,100739.44
2023-04-15T02:49:25.558Z,100734.28
2023-04-15T02:51:53.200Z,100735.19
2023-04-15T02:54:26.085Z,100729.97
2023-04-15T02:56:55.343Z,100740.44
2023-04-15T02:59:23.396Z,100743.94
2023-04-15T03:01:52.193Z,100750.00
2023-04-15T03:04:20.002Z,100748.25
2023-04-15T03:06:47.599Z,100752.63
2023-04-15T03:09:15.338Z,100756.16
2023-04-15T03:11:43.981Z,100757.06
2023-04-15T03:14:12.128Z,100752.75
2023-04-15T03:16:43.344Z,100751.06
2023-04-15T03:19:10.865Z,100754.53
2023-04-15T03:21:41.404Z,100751.97
2023-04-15T03:24:09.967Z,100753.69
2023-04-15T03:26:37.512Z,100758.09
2023-04-15T03:29:11.678Z,100758.97
2023-04-15T03:31:40.714Z,100759.00
2023-04-15T03:34:08.409Z,100770.34
2023-04-15T03:36:36.962Z,100762.50
2023-04-15T03:39:04.527Z,100769.50
2023-04-15T03:41:32.966Z,100768.66
2023-04-15T03:44:00.610Z,100776.47
2023-04-15T03:46:28.238Z,100775.63
2023-04-15T03:48:55.831Z,100772.16
2023-04-15T03:51:23.333Z,100774.78
2023-04-15T03:53:51.193Z,100776.56
2023-04-15T03:56:18.693Z,100777.44
2023-04-15T03:58:46.717Z,100780.09
2023-04-15T04:01:14.393Z,100782.72
2023-04-15T04:03:42.515Z,100783.59
2023-04-15T04:06:12.454Z,100794.94
2023-04-15T04:08:40.024Z,100799.34
2023-04-15T04:11:07.973Z,100804.56
2023-04-15T04:13:35.523Z,100805.47
2023-04-15T04:16:04.753Z,100804.66
2023-04-15T04:18:33.362Z,100808.16
2023-04-15T04:21:01.570Z,100809.91
2023-04-15T04:23:29.228Z,100809.91
2023-04-15T04:25:56.954Z,100821.25
2023-04-15T04:28:24.474Z,100814.31
2023-04-15T04:30:52.081Z,100830.84
2023-04-15T04:33:22.431Z,100829.13
2023-04-15T04:35:49.972Z,100828.28
2023-04-15T04:38:17.519Z,100832.59
2023-04-15T04:40:45.347Z,100829.13
2023-04-15T04:43:13.257Z,100844.75
2023-04-15T04:45:41.244Z,100850.84
2023-04-15T04:48:10.509Z,100847.38
2023-04-15T04:50:38.290Z,100850.84
2023-04-15T04:53:06.051Z,100849.97
2023-04-15T04:55:34.454Z,100858.63
2023-04-15T04:58:01.977Z,100856.03
2023-04-15T05:00:29.784Z,100863.84
2023-04-15T05:02:57.659Z,100874.28
2023-04-15T05:05:25.492Z,100876.00
2023-04-15T05:07:53.409Z,100871.69
2023-04-15T05:10:21.119Z,100872.53
2023-04-15T05:12:48.707Z,100880.31
2023-04-15T05:15:16.387Z,100889.03
2023-04-15T05:17:44.741Z,100887.28
2023-04-15T05:20:13.043Z,100887.28
2023-04-15T05:22:40.910Z,100894.22
2023-04-15T05:25:09.389Z,100895.09
2023-04-15T05:27:37.017Z,100897.69
2023-04-15T05:30:05.484Z,100904.63
2023-04-15T05:32:33.065Z,100902.88
2023-04-15T05:35:00.705Z,100909.81
2023-04-15T05:37:28.262Z,100914.13
2023-04-15T05:39:56.791Z,100921.06
2023-04-15T05:42:25.227Z,100919.31
2023-04-15T05:44:55.238Z,100923.63
2023-04-15T05:47:22.978Z,100930.53
2023-04-15T05:49:50.962Z,100935.72
2023-04-15T05:52:18.835Z,100933.91
2023-04-15T05:54:46.614Z,100942.59
2023-04-15T05:57:14.235Z,100940.81
2023-04-15T05:59:42.697Z,100939.03
2023-04-15T06:02:10.606Z,100945.06
2023-04-15T06:04:38.330Z,100952.84
2023-04-15T06:07:06.239Z,100955.38
2023-04-15T06:09:33.853Z,100959.69
2023-04-15T06:12:02.178Z,100963.09
2023-04-15T06:14:29.717Z,100966.50
2023-04-15T06:16:58.191Z,100975.16
2023-04-15T06:19:26.142Z,100980.31
2023-04-15T06:21:53.689Z,100992.47
2023-04-15T06:24:21.551Z,100988.94
2023-04-15T06:26:49.102Z,100990.66
2023-04-15T06:29:16.644Z,101001.91
2023-04-15T06:31:44.228Z,101003.56
2023-04-15T06:34:11.816Z,101011.34
2023-04-15T06:36:39.351Z,101006.03
2023-04-15T06:39:07.127Z,101011.22
2023-04-15T06:41:35.535Z,101016.38
2023-04-15T06:44:03.322Z,101016.28
2023-04-15T06:46:30.959Z,101027.53
2023-04-15T06:48:58.522Z,101027.38
2023-04-15T06:51:26.790Z,101033.31
2023-04-15T06:53:54.562Z,101031.41
2023-04-15T06:56:22.038Z,101039.94
2023-04-15T06:58:49.570Z,101040.63
2023-04-15T07:01:19.977Z,101041.34
2023-04-15T07:03:47.799Z,101050.72
2023-04-15T07:06:15.374Z,101049.63
2023-04-15T07:08:42.934Z,101058.16
2023-04-15T07:11:11.515Z,101061.41
2023-04-15T07:13:39.165Z,101060.19
2023-04-15T07:16:06.834Z,101066.13
2023-04-15T07:18:34.534Z,101073.03
2023-04-15T07:21:04.698Z,101074.63
2023-04-15T07:23:32.560Z,101080.63
2023-04-15T07:26:00.997Z,101082.31
2023-04-15T07:28:28.588Z,101090.13
2023-04-15T07:30:57.360Z,101091.06
2023-04-15T07:33:24.990Z,101096.34
2023-04-15T07:35:52.540Z,101096.34
2023-04-15T07:38:20.095Z,101099.06
2023-04-15T07:40:48.429Z,101105.19
2023-04-15T07:43:16.173Z,101107.88
2023-04-15T07:45:43.855Z,101110.41
2023-04-15T07:48:11.518Z,101117.34
2023-04-15T07:50:39.541Z,101113.81
2023-04-15T07:53:07.554Z,101119.88
2023-04-15T07:55:35.112Z,101125.94
2023-04-15T07:58:02.700Z,101120.63
2023-04-15T08:00:30.571Z,101130.16
2023-04-15T08:02:59.571Z,101132.69
2023-04-15T08:05:27.315Z,101132.69
2023-04-15T08:07:54.899Z,101136.19
2023-04-15T08:10:22.834Z,101130.78
2023-04-15T08:13:01.052Z,101147.13
2023-04-15T08:15:28.700Z,101137.28
2023-04-15T08:17:56.272Z,101147.53
2023-04-15T08:20:24.093Z,101153.41
2023-04-15T08:22:52.579Z,101154.84
2023-04-15T08:25:20.623Z,101157.25
2023-04-15T08:27:48.516Z,101156.06
2023-04-15T08:30:16.220Z,101154.91
2023-04-15T08:32:47.145Z,101156.50
2023-04-15T08:35:15.467Z,101162.38
2023-04-15T08:37:43.022Z,101158.53
2023-04-15T08:40:11.573Z,101161.78
2023-04-15T08:42:51.664Z,101173.88
2023-04-15T08:45:20.646Z,101173.78
2023-04-15T08:47:54.557Z,101175.47
2023-04-15T08:50:25.309Z,101179.84
2023-04-15T08:53:00.288Z,101184.94
2023-04-15T08:55:36.169Z,101184.94
2023-04-15T08:58:05.626Z,101191.94
2023-04-15T09:00:34.043Z,101198.19
2023-04-15T09:03:02.455Z,101193.81
2023-04-15T09:05:33.772Z,101200.78
2023-04-15T09:08:05.848Z,101193.69
2023-04-15T09:10:33.927Z,101204.91
2023-04-15T09:13:02.858Z,101209.16
2023-04-15T09:15:33.007Z,101214.28
2023-04-15T09:18:00.737Z,101213.41
2023-04-15T09:20:32.303Z,101216.88
2023-04-15T09:23:14.122Z,101215.75
2023-04-15T09:25:42.589Z,101218.13
2023-04-15T09:28:11.231Z,101226.66
2023-04-15T09:30:38.991Z,101223.88
2023-04-15T09:33:10.852Z,101233.41
2023-04-15T09:35:38.669Z,101238.66
2023-04-15T09:38:09.794Z,101232.19
2023-04-15T09:40:41.354Z,101237.28
2023-04-15T09:43:13.054Z,101242.38
2023-04-15T09:45:51.662Z,101247.38
2023-04-15T09:48:31.108Z,101239.06
2023-04-15T09:51:01.387Z,101249.38
2023-04-15T09:53:31.244Z,101241.22
2023-04-15T09:56:02.358Z,101247.22
2023-04-15T09:58:35.650Z,101253.03
2023-04-15T10:01:06.559Z,101253.56
2023-04-15T10:03:38.627Z,101255.00
2023-04-15T10:06:06.893Z,101251.41
2023-04-15T10:08:35.163Z,101246.91
2023-04-15T10:11:04.602Z,101256.56
2023-04-15T10:13:37.298Z,101264.59
2023-04-15T10:16:13.828Z,101268.31
2023-04-15T10:18:46.739Z,101261.25
2023-04-15T10:21:18.458Z,101263.75
2023-04-15T10:23:47.059Z,101274.72
2023-04-15T10:26:17.380Z,101270.88
2023-04-15T10:28:49.590Z,101272.47
2023-04-15T10:31:18.555Z,101267.22
2023-04-15T10:33:47.463Z,101270.66
2023-04-15T10:36:18.960Z,101270.63
2023-04-15T10:38:46.780Z,101273.16
2023-04-15T10:41:20.998Z,101286.25
2023-04-15T10:43:54.688Z,101282.69
2023-04-15T10:46:35.282Z,101276.56
2023-04-15T10:49:16.333Z,101280.88
2023-04-15T10:51:53.589Z,101286.25
2023-04-15T10:54:27.473Z,101280.38
2023-04-15T10:57:01.699Z,101288.53
2023-04-15T10:59:36.091Z,101290.25
2023-04-15T11:02:08.195Z,101293.44
2023-04-15T11:04:56.050Z,101296.97
2023-04-15T11:07:56.496Z,101295.13
2023-04-15T11:10:30.985Z,101298.63
2023-04-15T11:13:05.576Z,101310.13
2023-04-15T11:15:41.680Z,101297.91
2023-04-15T11:18:10.435Z,101300.25
2023-04-15T11:21:01.152Z,101301.69
2023-04-15T11:23:39.142Z,101304.13
2023-04-15T11:26:11.861Z,101312.75
2023-04-15T11:28:42.800Z,101311.84
2023-04-15T11:31:20.152Z,101311.56
2023-04-15T11:34:01.625Z,101315.47
2023-04-15T11:36:34.637Z,101314.28
2023-04-15T11:39:02.373Z,101318.25
2023-04-15T11:41:30.436Z,101312.59
2023-04-15T11:43:57.978Z,101313.00
2023-04-15T11:46:32.196Z,101310.66
2023-04-15T11:49:00.398Z,101311.91
2023-04-15T11:51:34.347Z,101315.28
2023-04-15T11:54:02.544Z,101311.75
2023-04-15T11:56:30.339Z,101312.97
2023-04-15T11:58:59.888Z,101312.56
2023-04-15T12:01:36.777Z,101308.34
2023-04-15T12:04:17.619Z,101306.16
2023-04-15T12:06:46.085Z,101324.53
2023-04-15T12:09:15.691Z,101329.72
2023-04-15T12:11:58.283Z,101315.38
2023-04-15T12:14:29.674Z,101325.41
2023-04-15T12:17:00.406Z,101335.63
2023-04-15T12:19:48.369Z,101333.31
2023-04-15T12:22:17.647Z,101331.06
2023-04-15T12:24:47.953Z,101340.22
2023-04-15T12:27:17.634Z,101338.84
2023-04-15T12:29:45.399Z,101348.78
2023-04-15T12:32:16.284Z,101340.81
2023-04-15T12:34:51.038Z,101349.56
2023-04-15T12:37:19.469Z,101354.88
2023-04-15T12:39:50.106Z,101349.41
2023-04-15T12:42:18.766Z,101360.91
2023-04-15T12:44:47.074Z,101360.13
2023-04-15T12:47:15.365Z,101365.19
2023-04-15T12:49:42.996Z,101372.94
2023-04-15T12:52:10.841Z,101356.81
2023-04-15T12:54:39.873Z,101374.75
2023-04-15T12:57:07.882Z,101367.84
2023-04-15T12:59:36.481Z,101376.41
2023-04-15T13:02:04.372Z,101375.81
2023-04-15T13:04:32.214Z,101390.97
2023-04-15T13:06:59.936Z,101389.59
2023-04-15T13:09:27.442Z,101391.78
2023-04-15T13:11:56.169Z,101388.81
2023-04-15T13:14:23.781Z,101381.66
2023-04-15T13:16:51.354Z,101392.91
2023-04-15T13:19:18.904Z,101396.84
2023-04-15T13:21:46.492Z,101394.13
2023-04-15T13:24:14.063Z,101397.22
2023-04-15T13:26:41.928Z,101400.78
2023-04-15T13:29:09.867Z,101400.22
2023-04-15T13:31:37.507Z,101402.28
2023-04-15T13:34:05.660Z,101417.53
2023-04-15T13:36:33.423Z,101405.41
2023-04-15T13:39:01.103Z,101404.91
2023-04-15T13:41:28.714Z,101402.38
2023-04-15T13:43:56.637Z,101418.06
2023-04-15T13:46:25.733Z,101425.44
2023-04-15T13:48:53.606Z,101424.34
2023-04-15T13:51:21.246Z,101430.94
2023-04-15T13:53:48.839Z,101428.47
2023-04-15T13:56:16.365Z,101429.53
2023-04-15T13:58:43.913Z,101443.19
2023-04-15T14:01:11.516Z,101451.38
2023-04-15T14:03:39.509Z,101454.16
2023-04-15T14:06:07.496Z,101454.44
2023-04-15T14:08:35.218Z,101445.81
2023-04-15T14:11:03.177Z,101461.03
2023-04-15T14:13:31.349Z,101465.53
2023-04-15T14:15:59.154Z,101466.63
2023-04-15T14:18:27.202Z,101468.63
2023-04-15T14:20:54.788Z,101474.78
2023-04-15T14:23:23.858Z,101471.59
2023-04-15T14:25:52.099Z,101481.69
2023-04-15T14:28:19.800Z,101487.00
2023-04-15T14:30:47.378Z,101485.53
2023-04-15T14:33:14.952Z,101487.31
2023-04-15T14:35:42.482Z,101492.38
2023-04-15T14:38:11.532Z,101506.06
2023-04-15T14:40:41.797Z,101493.84
2023-04-15T14:43:11.863Z,101499.66
2023-04-15T14:45:42.116Z,101510.69
2023-04-15T14:48:12.705Z,101519.16
2023-04-15T14:50:41.949Z,101509.97
2023-04-15T14:53:09.775Z,101523.44
2023-04-15T14:55:37.345Z,101531.16
2023-04-15T14:58:06.085Z,101533.38
2023-04-15T15:00:34.076Z,101540.50
2023-04-15T15:03:02.126Z,101533.59
2023-04-15T15:05:30.007Z,101559.41
2023-04-15T15:07:57.705Z,101541.47
2023-04-15T15:10:34.621Z,101553.63
2023-04-15T15:13:13.111Z,101557.75
2023-04-15T15:15:41.044Z,101552.00
2023-04-15T15:18:08.741Z,101558.63
2023-04-15T15:20:36.419Z,101556.50
2023-04-15T15:23:03.918Z,101559.56
2023-04-15T15:25:31.542Z,101572.34
2023-04-15T15:27:59.213Z,101578.03
2023-04-15T15:30:29.128Z,101580.16
2023-04-15T15:32:56.654Z,101572.47
2023-04-15T15:35:25.972Z,101579.78
2023-04-15T15:37:55.944Z,101582.59
2023-04-15T15:40:27.070Z,101574.84
2023-04-15T15:42:54.621Z,101575.97
2023-04-15T15:45:22.434Z,101589.47
2023-04-15T15:47:52.704Z,101591.41
2023-04-15T15:50:25.440Z,101585.38
2023-04-15T15:52:53.360Z,101597.84
2023-04-15T15:55:21.185Z,101600.53
2023-04-15T15:57:49.870Z,101605.00
2023-04-15T16:00:17.758Z,101608.63
2023-04-15T16:05:16.212Z,101612.47
2023-04-15T16:07:43.835Z,101622.22
2023-04-15T16:10:12.483Z,101628.50
2023-04-15T16:12:41.405Z,101640.97
2023-04-15T16:15:10.821Z,101641.13
2023-04-15T16:17:39.712Z,101648.28
2023-04-15T16:20:08.270Z,101650.16
2023-04-15T16:22:36.356Z,101654.66
2023-04-15T16:25:04.272Z,101662.69
2023-04-15T16:27:32.219Z,101661.03
2023-04-15T16:30:00.515Z,101657.66
2023-04-15T16:32:28.245Z,101650.72
2023-04-15T16:35:03.688Z,101659.56
2023-04-15T16:37:33.111Z,101672.69
2023-04-15T16:40:05.506Z,101670.03
2023-04-15T16:42:33.077Z,101665.63
2023-04-15T16:45:00.719Z,101669.19
2023-04-15T16:47:31.400Z,101683.22
2023-04-15T16:50:01.376Z,101682.47
2023-04-15T16:52:31.201Z,101689.53
2023-04-15T16:54:58.806Z,101697.50
2023-04-15T16:57:50.814Z,101700.13
2023-04-15T17:00:14.747Z,101701.97
2023-04-15T17:02:42.532Z,101697.56
2023-04-15T17:05:10.213Z,101704.56
2023-04-15T17:07:37.738Z,101701.94
2023-04-15T17:10:06.023Z,101707.22
2023-04-15T17:12:33.656Z,101705.47
2023-04-15T17:15:01.314Z,101704.63
2023-04-15T17:17:29.279Z,101710.81
2023-04-15T17:19:56.852Z,101719.66
2023-04-15T17:22:24.614Z,101710.97
2023-04-15T17:24:52.257Z,101716.34
2023-04-15T17:27:22.867Z,101715.53
2023-04-15T17:29:50.635Z,101727.91
2023-04-15T17:32:18.398Z,101717.47
2023-04-15T17:34:49.883Z,101713.19
2023-04-15T17:37:18.680Z,101719.38
2023-04-15T17:39:46.435Z,101730.81
2023-04-15T17:42:14.110Z,101730.91
2023-04-15T17:44:41.696Z,101745.84
2023-04-15T17:47:09.278Z,101741.53
2023-04-15T17:49:37.819Z,101745.97
2023-04-15T17:52:05.833Z,101756.53
2023-04-15T17:54:33.479Z,101754.84
2023-04-15T17:57:03.128Z,101765.34
2023-04-15T17:59:30.846Z,101759.28
2023-04-15T18:01:58.873Z,101762.81
2023-04-15T18:04:26.848Z,101764.59
2023-04-15T18:06:54.772Z,101766.38
2023-04-15T18:09:22.457Z,101764.63
2023-04-15T18:11:50.020Z,101776.91
2023-04-15T18:14:30.746Z,101775.19
2023-04-15T18:17:02.978Z,101783.97
2023-04-15T18:19:30.959Z,101784.88
2023-04-15T18:22:00.258Z,101792.75
2023-04-15T18:24:28.520Z,101788.41
2023-04-15T18:26:56.611Z,101800.69
2023-04-15T18:29:25.232Z,101803.34
2023-04-15T18:31:53.137Z,101804.19
2023-04-15T18:34:20.716Z,101814.69
2023-04-15T18:36:48.296Z,101807.72
2023-04-15T18:39:16.748Z,101810.34
2023-04-15T18:41:44.425Z,101819.13
2023-04-15T18:44:11.931Z,101823.50
2023-04-15T18:46:39.551Z,101815.69
2023-04-15T18:49:07.352Z,101829.69
2023-04-15T18:51:35.266Z,101834.06
2023-04-15T18:54:02.777Z,101839.31
2023-04-15T18:56:31.141Z,101835.00
2023-04-15T18:59:08.903Z,101841.13
2023-04-15T19:01:46.318Z,101851.69
2023-04-15T19:04:14.285Z,101851.69
2023-04-15T19:06:42.067Z,101854.31
2023-04-15T19:09:09.677Z,101859.59
2023-04-15T19:11:37.369Z,101857.00
2023-04-15T19:14:05.081Z,101864.84
2023-04-15T19:16:32.715Z,101854.38
2023-04-15T19:19:00.810Z,101864.00
2023-04-15T19:21:30.500Z,101868.34
2023-04-15T19:23:58.310Z,101872.69
2023-04-15T19:26:25.879Z,101884.06
2023-04-15T19:28:53.928Z,101886.69
2023-04-15T19:31:21.556Z,101884.94
2023-04-15T19:33:49.085Z,101892.81
2023-04-15T19:36:18.149Z,101898.06
2023-04-15T19:38:45.967Z,101897.19
2023-04-15T19:41:13.608Z,101905.06
2023-04-15T19:43:41.223Z,101902.44
2023-04-15T19:46:08.940Z,101897.19
2023-04-15T19:48:36.840Z,101898.06
2023-04-15T19:51:04.397Z,101901.56
2023-04-15T19:53:32.005Z,101900.69
2023-04-15T19:55:59.664Z,101901.56
2023-04-15T19:58:27.218Z,101895.44
2023-04-15T20:00:54.887Z,101893.72
2023-04-15T20:03:23.664Z,101901.56
2023-04-15T20:05:52.773Z,101894.56
2023-04-15T20:08:20.743Z,101896.31
2023-04-15T20:10:48.274Z,101898.09
2023-04-15T20:13:18.218Z,101899.81
2023-04-15T20:15:46.018Z,101894.59
2023-04-15T20:18:13.626Z,101892.81
2023-04-15T20:20:41.291Z,101898.09
2023-04-15T20:23:08.919Z,101903.34
2023-04-15T20:25:36.503Z,101909.44
2023-04-15T20:28:04.116Z,101902.44
2023-04-15T20:30:31.763Z,101911.19
2023-04-15T20:33:00.425Z,101911.19
2023-04-15T20:35:30.833Z,101910.31
2023-04-15T20:37:58.602Z,101915.56
2023-04-15T20:40:26.694Z,101920.81
2023-04-15T20:42:54.291Z,101916.44
2023-04-15T20:45:22.017Z,101907.72
2023-04-15T20:47:49.562Z,101916.44
2023-04-15T20:50:17.303Z,101909.44
2023-04-15T20:52:47.119Z,101916.41
2023-04-15T20:55:14.660Z,101919.06
2023-04-15T20:57:42.279Z,101916.41
2023-04-15T21:00:11.055Z,101920.78
2023-04-15T21:02:38.906Z,101922.56
2023-04-15T21:05:07.150Z,101912.94
2023-04-15T21:07:34.691Z,101912.03
2023-04-15T21:10:02.311Z,101913.81
2023-04-15T21:12:29.865Z,101919.03
2023-04-15T21:15:00.522Z,101916.44
2023-04-15T21:17:31.395Z,101923.44
2023-04-15T21:19:59.096Z,101928.66
2023-04-15T21:22:26.916Z,101923.41
2023-04-15T21:24:54.450Z,101932.16
2023-04-15T21:27:25.687Z,101930.41
2023-04-15T21:29:53.591Z,101931.25
2023-04-15T21:32:24.289Z,101939.13
2023-04-15T21:34:56.590Z,101941.75
2023-04-15T21:37:29.453Z,101939.13
2023-04-15T21:39:57.131Z,101947.88
2023-04-15T21:42:24.803Z,101944.38
2023-04-15T21:44:52.446Z,101945.25
2023-04-15T21:47:20.406Z,101938.25
2023-04-15T21:49:48.201Z,101944.38
2023-04-15T21:52:15.845Z,101943.50
2023-04-15T21:54:43.379Z,101952.25
2023-04-15T21:57:11.162Z,101954.88
2023-04-15T21:59:38.655Z,101965.34
2023-04-15T22:02:06.280Z,101960.09
2023-04-15T22:04:33.885Z,101966.19
2023-04-15T22:07:02.394Z,101966.19
2023-04-15T22:09:30.814Z,101960.97
2023-04-15T22:12:08.266Z,101962.72
2023-04-15T22:14:46.179Z,101970.59
2023-04-15T22:17:23.765Z,101971.47
2023-04-15T22:20:01.206Z,101974.94
2023-04-15T22:22:44.075Z,101974.97
2023-04-15T22:25:21.967Z,101984.56
2023-04-15T22:27:59.855Z,101982.84
2023-04-15T22:30:42.199Z,101983.69
2023-04-15T22:33:19.920Z,101987.19
2023-04-15T22:35:57.382Z,101987.19
2023-04-15T22:38:34.844Z,101988.03
2023-04-15T22:41:12.315Z,101985.44
2023-04-15T22:43:49.774Z,101989.81
2023-04-15T22:46:27.187Z,101991.56
2023-04-15T22:49:09.219Z,101998.56
2023-04-15T22:51:46.637Z,101995.94
2023-04-15T22:54:24.614Z,102004.66
2023-04-15T22:57:02.183Z,101993.28
2023-04-15T22:59:39.692Z,102008.16
2023-04-15T23:02:17.412Z,102006.38
2023-04-15T23:04:55.261Z,102010.78
2023-04-15T23:07:32.832Z,102008.16
2023-04-15T23:10:10.539Z,102012.53
2023-04-15T23:12:48.064Z,102009.91
2023-04-15T23:15:25.757Z,102014.28
2023-04-15T23:18:03.487Z,102006.41
2023-04-15T23:20:41.110Z,102005.53
2023-04-15T23:23:18.532Z,102011.63
2023-04-15T23:25:56.261Z,102017.78
2023-04-15T23:28:33.662Z,102013.41
2023-04-15T23:31:11.155Z,102015.13
2023-04-15T23:33:48.637Z,102021.25
2023-04-15T23:36:27.268Z,102021.25
2023-04-15T23:39:04.740Z,102023.00
2023-04-15T23:41:42.114Z,102022.13
2023-04-15T23:44:20.352Z,102028.25
2023-04-15T23:46:57.790Z,102030.00
2023-04-15T23:49:36.665Z,102025.63
2023-04-15T23:52:14.579Z,102030.84
2023-04-15T23:54:52.030Z,102023.00
2023-04-15T23:57:29.470Z,102023.88
